Terminal Aerodrome Forecast
Issued by NWS

Home | Current Version | Previous Version | Graphics & Text | Print | Product List | Glossary On
Versions: 1 2 3 4 5 6 7 8 9 10 11 12 13 14 15 16 17 18 19 20 21 22 23 24 25 26
043
FTUS43 KICT 252235 AAC
TAFRSL
TAF AMD
KRSL 252235Z 2523/2618 35010KT P6SM SCT012 BKN035
      TEMPO 2523/2601 BKN017
     FM260200 07006KT P6SM BKN035
     FM260900 13005KT 5SM BR BKN015
     FM261400 10008KT P6SM BKN020=

USA.gov is the U.S. government's official web portal to all federal, state and local government web resources and services.